Time;durP1;ratioP1;P1;durP2;ratioP2;P2;SDS_P1;SDS_P2;PMS_P1;PMS_P2;Temp;Humidity;BMP_temperature;BMP_pressure;BME280_temperature;BME280_humidity;BME280_pressure;Samples;Min_cycle;Max_cycle;Signal;HPM_P1;HPM_P2
2021/12/02 00:01:27;;;;;;;7.03;1.10;;;3.20;99.90;;;;;;4805374;29;20046;-84
2021/12/02 00:03:55;;;;;;;1.50;0.80;;;3.20;99.90;;;;;;4804060;29;20115;-84
2021/12/02 00:06:24;;;;;;;1.52;0.70;;;3.00;99.90;;;;;;4789876;29;20051;-85
2021/12/02 00:08:51;;;;;;;8.73;1.77;;;3.10;99.90;;;;;;4803271;29;20051;-86
2021/12/02 00:11:20;;;;;;;;;;;3.10;99.90;;;;;;4804039;29;20058;-86
2021/12/02 00:16:22;;;;;;;1.83;1.00;;;3.00;99.90;;;;;;4788929;29;20046;-86
2021/12/02 00:21:26;;;;;;;7.05;1.30;;;3.00;99.90;;;;;;4803963;29;20443;-86
2021/12/02 00:23:58;;;;;;;7.22;1.20;;;2.90;99.90;;;;;;4788225;29;20146;-86
2021/12/02 00:26:24;;;;;;;5.65;1.88;;;2.90;99.90;;;;;;4787962;29;20534;-86
2021/12/02 00:28:52;;;;;;;5.10;1.05;;;2.90;99.90;;;;;;4787810;29;20047;-86
2021/12/02 00:31:21;;;;;;;4.18;1.77;;;2.80;99.90;;;;;;4788940;29;20054;-86
2021/12/02 00:33:51;;;;;;;2.92;1.63;;;2.80;99.90;;;;;;4802496;29;20047;-86
2021/12/02 00:36:18;;;;;;;1.38;1.02;;;2.80;99.90;;;;;;4816596;29;20469;-86
2021/12/02 00:38:46;;;;;;;6.10;1.00;;;2.70;99.90;;;;;;4788882;29;20043;-86
2021/12/02 00:41:14;;;;;;;3.08;1.35;;;2.70;99.90;;;;;;4785097;29;20051;-87
2021/12/02 00:43:42;;;;;;;3.80;1.08;;;2.70;99.90;;;;;;4799855;29;20583;-86
2021/12/02 00:46:11;;;;;;;10.63;1.10;;;2.70;99.90;;;;;;4756458;30;20049;-87
2021/12/02 00:48:38;;;;;;;1.33;0.95;;;2.70;99.90;;;;;;4784502;30;20051;-88
2021/12/02 00:51:05;;;;;;;0.82;0.82;;;2.10;99.90;;;;;;4770171;30;20135;-86
2021/12/02 00:53:33;;;;;;;1.98;1.00;;;2.60;99.90;;;;;;4799529;29;20062;-86
2021/12/02 00:56:07;;;;;;;7.63;1.20;;;2.60;99.90;;;;;;4784310;30;20054;-86
2021/12/02 00:58:34;;;;;;;3.03;1.33;;;2.60;99.90;;;;;;4813718;29;20058;-86
2021/12/02 01:01:05;;;;;;;6.30;1.77;;;2.60;99.90;;;;;;4784469;30;20722;-86
2021/12/02 01:03:35;;;;;;;18.73;1.48;;;2.60;99.90;;;;;;4799629;29;20049;-87
2021/12/02 01:06:02;;;;;;;0.90;0.90;;;2.60;99.90;;;;;;4784266;30;20051;-86
2021/12/02 01:08:30;;;;;;;2.53;0.95;;;2.60;99.90;;;;;;4784150;30;20427;-86
2021/12/02 01:10:56;;;;;;;2.15;1.02;;;2.60;99.90;;;;;;4798354;29;20531;-86
2021/12/02 01:13:22;;;;;;;3.20;1.30;;;2.70;99.90;;;;;;4771022;30;20130;-86
2021/12/02 01:15:51;;;;;;;1.20;1.13;;;2.30;99.90;;;;;;4769242;30;20055;-86
2021/12/02 01:18:20;;;;;;;9.23;1.70;;;2.60;99.90;;;;;;4769092;30;20047;-86
2021/12/02 01:20:51;;;;;;;2.67;1.27;;;2.60;99.90;;;;;;4783709;30;20455;-86
2021/12/02 01:23:20;;;;;;;3.40;1.20;;;2.70;99.90;;;;;;4798564;29;20051;-87
2021/12/02 01:25:52;;;;;;;1.95;1.35;;;2.60;99.90;;;;;;4784361;30;20055;-87
2021/12/02 01:28:22;;;;;;;2.45;0.93;;;2.70;99.90;;;;;;4784210;30;20053;-86
2021/12/02 01:30:56;;;;;;;1.45;0.90;;;2.70;99.90;;;;;;4814290;29;20039;-86
2021/12/02 01:33:24;;;;;;;12.43;1.20;;;2.70;99.90;;;;;;4763577;30;20047;-86
2021/12/02 01:35:55;;;;;;;3.20;1.00;;;2.70;99.90;;;;;;4798900;29;20078;-86
2021/12/02 01:38:27;;;;;;;1.30;0.77;;;2.60;99.90;;;;;;4799309;29;20047;-86
2021/12/02 01:40:58;;;;;;;1.08;0.98;;;2.80;99.90;;;;;;4784803;29;20054;-86
2021/12/02 01:43:51;;;;;;;2.67;1.17;;;2.60;99.90;;;;;;4787679;29;20088;-86
2021/12/02 01:46:23;;;;;;;5.05;1.00;;;2.70;99.90;;;;;;4816358;29;20506;-86
2021/12/02 01:48:58;;;;;;;0.90;0.73;;;2.70;99.90;;;;;;4786303;29;20119;-87
2021/12/02 01:51:28;;;;;;;1.27;0.70;;;2.70;99.90;;;;;;4772718;29;20046;-86
2021/12/02 01:54:01;;;;;;;;;;;2.70;99.90;;;;;;4772444;29;20460;-86
2021/12/02 01:56:30;;;;;;;2.00;1.05;;;2.70;99.90;;;;;;4803480;29;19974;-86
2021/12/02 01:59:07;;;;;;;3.95;0.80;;;2.60;99.90;;;;;;4787647;29;20438;-86
2021/12/02 02:01:36;;;;;;;0.98;0.77;;;2.80;99.90;;;;;;4802770;29;20053;-87
2021/12/02 02:04:03;;;;;;;0.98;0.70;;;2.80;99.90;;;;;;4786837;29;20111;-87
2021/12/02 02:06:36;;;;;;;0.90;0.60;;;2.80;99.90;;;;;;4798993;29;20128;-86
2021/12/02 02:09:05;;;;;;;0.65;0.52;;;2.80;99.90;;;;;;4786426;29;20055;-86
2021/12/02 02:11:31;;;;;;;1.45;1.35;;;2.80;99.90;;;;;;4776349;29;20057;-86
2021/12/02 02:13:59;;;;;;;1.83;0.63;;;2.80;99.90;;;;;;4771172;29;20058;-87
2021/12/02 02:16:26;;;;;;;2.03;0.50;;;2.70;99.90;;;;;;4802346;29;20085;-86
2021/12/02 02:18:52;;;;;;;8.30;1.00;;;2.00;99.90;;;;;;4773206;29;20050;-87
2021/12/02 02:21:22;;;;;;;6.85;1.27;;;2.70;99.90;;;;;;4773676;29;20054;-86
2021/12/02 02:23:58;;;;;;;1.13;0.57;;;2.60;99.90;;;;;;4786699;29;20055;-86
2021/12/02 02:26:34;;;;;;;0.90;0.52;;;2.00;99.90;;;;;;4817005;29;20093;-86
2021/12/02 02:29:01;;;;;;;2.08;0.75;;;2.50;99.90;;;;;;4816824;29;20425;-86
2021/12/02 02:31:29;;;;;;;1.85;0.73;;;2.40;99.90;;;;;;4801991;29;20062;-86
2021/12/02 02:33:55;;;;;;;4.50;0.77;;;2.40;99.90;;;;;;4769804;29;20089;-87
2021/12/02 02:36:24;;;;;;;2.03;0.70;;;2.40;99.90;;;;;;4802164;29;20107;-86
2021/12/02 02:38:59;;;;;;;2.20;0.57;;;2.30;99.90;;;;;;4801532;29;20498;-87
2021/12/02 02:41:40;;;;;;;5.00;0.45;;;2.30;99.90;;;;;;4768384;30;20538;-87
2021/12/02 02:44:07;;;;;;;1.50;0.55;;;2.30;99.90;;;;;;4783085;30;20051;-87
2021/12/02 02:46:37;;;;;;;9.50;0.75;;;2.00;99.90;;;;;;4813995;29;20051;-86
2021/12/02 02:49:06;;;;;;;1.75;0.85;;;2.20;99.90;;;;;;4767934;30;20464;-86
2021/12/02 02:51:34;;;;;;;0.68;0.50;;;2.20;99.90;;;;;;4784103;29;20044;-86
2021/12/02 02:54:04;;;;;;;5.35;0.90;;;2.10;99.90;;;;;;4810496;29;20078;-87
2021/12/02 02:56:38;;;;;;;2.13;0.85;;;2.10;99.90;;;;;;4798971;29;20116;-86
2021/12/02 02:59:16;;;;;;;2.13;0.35;;;2.20;99.90;;;;;;4782497;29;20051;-87
2021/12/02 03:07:24;;;;;;;1.05;0.70;;;2.00;99.90;;;;;;4786482;29;20048;-87
2021/12/02 03:09:45;;;;;;;1.25;0.73;;;2.00;99.90;;;;;;4780918;30;20506;-86
2021/12/02 03:12:23;;;;;;;1.13;0.60;;;2.00;99.90;;;;;;4786460;30;20086;-86
2021/12/02 03:17:29;;;;;;;0.88;0.47;;;1.90;99.90;;;;;;4786408;30;20063;-86
2021/12/02 03:19:55;;;;;;;1.35;0.65;;;1.90;99.90;;;;;;4801175;29;20518;-87
2021/12/02 03:22:21;;;;;;;0.28;0.28;;;1.80;99.90;;;;;;4785851;30;20067;-86
2021/12/02 03:24:49;;;;;;;2.00;1.25;;;1.80;99.90;;;;;;4771504;30;20062;-86
2021/12/02 03:27:15;;;;;;;2.78;1.02;;;1.80;99.90;;;;;;4786048;30;20188;-86
2021/12/02 03:29:44;;;;;;;0.73;0.50;;;1.80;99.90;;;;;;4816169;29;20133;-86
2021/12/02 03:32:12;;;;;;;2.10;0.80;;;1.70;99.90;;;;;;4786004;30;20043;-87
2021/12/02 03:34:44;;;;;;;1.30;0.30;;;2.00;99.90;;;;;;4816301;29;20399;-86
2021/12/02 03:37:12;;;;;;;1.38;1.02;;;1.90;99.90;;;;;;4816215;29;20513;-86
2021/12/02 03:39:41;;;;;;;2.70;1.08;;;1.70;99.90;;;;;;4770866;30;20044;-86
2021/12/02 03:42:08;;;;;;;0.38;0.38;;;1.80;99.90;;;;;;4788957;29;20059;-86
2021/12/02 03:44:33;;;;;;;0.60;0.40;;;2.80;99.90;;;;;;4803409;29;20062;-86
2021/12/02 03:47:00;;;;;;;2.33;0.90;;;1.80;99.90;;;;;;4786047;29;20054;-86
2021/12/02 03:49:26;;;;;;;0.47;0.47;;;1.80;99.90;;;;;;4776097;29;20050;-86
2021/12/02 03:51:52;;;;;;;0.80;0.57;;;1.90;99.90;;;;;;4803950;29;20055;-87
2021/12/02 03:54:18;;;;;;;0.77;0.43;;;2.50;99.90;;;;;;4803790;29;20111;-86
2021/12/02 03:56:44;;;;;;;0.77;0.37;;;3.00;99.90;;;;;;4818376;29;20050;-86
2021/12/02 03:59:12;;;;;;;2.10;0.43;;;3.00;99.90;;;;;;4803932;29;20042;-86
2021/12/02 04:01:38;;;;;;;4.88;1.08;;;3.00;99.90;;;;;;4803858;29;20433;-86
2021/12/02 04:04:04;;;;;;;6.03;0.67;;;1.80;99.90;;;;;;4773771;29;20138;-87
2021/12/02 04:06:30;;;;;;;1.88;0.65;;;1.50;99.90;;;;;;4803835;29;20146;-86
2021/12/02 04:09:02;;;;;;;0.57;0.32;;;2.60;99.90;;;;;;4773440;29;20084;-86
2021/12/02 04:11:33;;;;;;;0.95;0.45;;;1.80;99.90;;;;;;4818437;29;20081;-86
2021/12/02 04:17:05;;;;;;;0.68;0.50;;;2.80;99.90;;;;;;4769441;30;20056;-86
2021/12/02 04:19:31;;;;;;;4.90;1.10;;;2.80;99.90;;;;;;4784527;29;20494;-86
2021/12/02 04:22:03;;;;;;;0.88;0.70;;;1.70;99.90;;;;;;4803393;29;20129;-86
2021/12/02 04:24:28;;;;;;;6.00;0.70;;;1.70;99.90;;;;;;4787918;29;20086;-86
2021/12/02 04:26:55;;;;;;;1.80;0.77;;;1.60;99.90;;;;;;4788326;29;20074;-86
2021/12/02 04:29:23;;;;;;;0.57;0.57;;;1.60;99.90;;;;;;4818193;29;20053;-87
2021/12/02 04:31:49;;;;;;;3.33;1.48;;;1.60;99.90;;;;;;4789513;29;20061;-86
2021/12/02 04:34:16;;;;;;;3.93;1.10;;;2.70;99.90;;;;;;4788209;29;20481;-86
2021/12/02 04:36:42;;;;;;;0.30;0.30;;;1.50;99.90;;;;;;4773435;29;20055;-86
2021/12/02 04:39:09;;;;;;;1.60;0.83;;;1.50;99.90;;;;;;4802803;29;20513;-88
2021/12/02 04:41:35;;;;;;;4.97;0.75;;;1.50;99.90;;;;;;4799818;29;20867;-86
2021/12/02 04:44:02;;;;;;;1.08;0.43;;;1.20;99.90;;;;;;4800192;29;20086;-87
2021/12/02 04:46:28;;;;;;;4.93;0.77;;;1.40;99.90;;;;;;4769889;30;20051;-86
2021/12/02 04:48:54;;;;;;;0.43;0.43;;;1.40;99.90;;;;;;4785713;30;20070;-86
2021/12/02 04:51:19;;;;;;;0.77;0.53;;;1.40;99.90;;;;;;4768930;30;20063;-87
2021/12/02 04:53:47;;;;;;;0.53;0.50;;;1.40;99.90;;;;;;4800203;29;20387;-87
2021/12/02 04:56:13;;;;;;;1.17;0.70;;;1.40;99.90;;;;;;4799673;29;20396;-87
2021/12/02 04:58:39;;;;;;;0.60;0.40;;;1.40;99.90;;;;;;4794275;29;20081;-86
2021/12/02 05:01:05;;;;;;;0.97;0.60;;;2.60;99.90;;;;;;4769915;30;20043;-88
2021/12/02 05:03:30;;;;;;;8.43;1.23;;;0.90;99.90;;;;;;4769353;30;20126;-86
2021/12/02 05:05:56;;;;;;;0.87;0.60;;;1.40;99.90;;;;;;4769936;30;20103;-86
2021/12/02 05:08:22;;;;;;;0.35;0.28;;;1.30;99.90;;;;;;4783837;29;20043;-87
2021/12/02 05:10:48;;;;;;;0.17;0.17;;;0.60;99.90;;;;;;4798693;29;20060;-86
2021/12/02 05:13:16;;;;;;;1.13;0.63;;;1.40;99.90;;;;;;4814282;29;20062;-88
2021/12/02 05:15:42;;;;;;;0.32;0.30;;;1.30;99.90;;;;;;4784651;30;20051;-87
2021/12/02 05:18:08;;;;;;;0.73;0.47;;;2.30;99.90;;;;;;4784333;30;20095;-87
2021/12/02 05:20:35;;;;;;;2.20;0.60;;;1.30;99.90;;;;;;4784130;30;20047;-87
2021/12/02 05:23:00;;;;;;;0.45;0.45;;;2.20;99.90;;;;;;4769988;30;20059;-87
2021/12/02 05:25:26;;;;;;;1.75;0.63;;;1.00;99.90;;;;;;4784407;30;20054;-86
2021/12/02 05:27:54;;;;;;;1.67;0.73;;;1.30;99.90;;;;;;4814431;29;20049;-86
2021/12/02 05:30:20;;;;;;;0.30;0.30;;;1.30;99.90;;;;;;4781214;30;20495;-86
2021/12/02 05:32:52;;;;;;;0.60;0.50;;;1.80;99.90;;;;;;4798766;29;20086;-86
2021/12/02 05:35:18;;;;;;;0.45;0.22;;;1.30;99.90;;;;;;4783850;30;20533;-86
2021/12/02 05:37:46;;;;;;;3.10;0.37;;;1.70;99.90;;;;;;4784588;29;20051;-86
2021/12/02 05:40:12;;;;;;;1.88;0.38;;;1.30;99.90;;;;;;4796808;29;20126;-86
2021/12/02 05:42:38;;;;;;;0.55;0.55;;;0.70;99.90;;;;;;4790571;29;20078;-87
2021/12/02 05:45:04;;;;;;;0.67;0.43;;;2.30;99.90;;;;;;4817963;29;20154;-86
2021/12/02 05:47:40;;;;;;;3.05;0.47;;;1.30;99.90;;;;;;4786917;29;20528;-84
2021/12/02 05:50:06;;;;;;;5.93;0.30;;;1.40;99.90;;;;;;4775693;29;20079;-85
2021/12/02 05:52:32;;;;;;;0.38;0.38;;;1.40;99.90;;;;;;4788099;29;20054;-91
2021/12/02 05:54:58;;;;;;;0.40;0.40;;;1.40;99.90;;;;;;4788747;29;20108;-93
2021/12/02 05:57:31;;;;;;;1.17;0.35;;;2.30;99.90;;;;;;4803118;29;20300;-92
2021/12/02 05:59:59;;;;;;;0.30;0.05;;;1.40;99.90;;;;;;4806946;29;20039;-92
2021/12/02 06:05:34;;;;;;;0.55;0.55;;;1.30;99.90;;;;;;4810746;29;20051;-93
2021/12/02 06:08:05;;;;;;;0.95;0.40;;;1.40;99.90;;;;;;4814560;29;20191;-94
2021/12/02 06:10:34;;;;;;;0.40;0.20;;;1.20;99.90;;;;;;4800342;29;20502;-93
2021/12/02 06:13:08;;;;;;;0.30;0.20;;;2.50;99.90;;;;;;4774387;29;20097;-91
2021/12/02 06:15:36;;;;;;;0.40;0.32;;;2.30;99.90;;;;;;4787840;29;20042;-87
2021/12/02 06:18:12;;;;;;;0.30;0.30;;;1.30;99.90;;;;;;4792429;29;20057;-87
2021/12/02 06:20:57;;;;;;;0.80;0.60;;;1.90;99.90;;;;;;4817481;29;20052;-87
2021/12/02 06:23:29;;;;;;;0.73;0.30;;;2.10;99.90;;;;;;4801715;29;20127;-88
2021/12/02 06:25:57;;;;;;;0.55;0.35;;;1.30;99.90;;;;;;4787936;29;20059;-87
2021/12/02 06:28:26;;;;;;;0.60;0.20;;;1.40;99.90;;;;;;4775832;29;20050;-88
2021/12/02 06:30:55;;;;;;;0.38;0.38;;;1.40;99.90;;;;;;4818348;29;20051;-87
2021/12/02 06:33:23;;;;;;;0.35;0.30;;;1.30;99.90;;;;;;4817669;29;20067;-88
2021/12/02 06:35:51;;;;;;;0.20;0.20;;;1.50;99.90;;;;;;4817102;29;20050;-88
2021/12/02 06:38:25;;;;;;;0.63;0.43;;;2.40;99.90;;;;;;4778872;29;20519;-87
2021/12/02 06:40:52;;;;;;;0.30;0.30;;;2.30;99.90;;;;;;4791657;29;20046;-87
2021/12/02 06:43:48;;;;;;;;;;;;;;;;;;;;;
2021/12/02 06:46:31;;;;;;;;;;;;;;;;;;;;;
2021/12/02 06:49:00;;;;;;;0.40;0.22;;;1.40;99.90;;;;;;4783894;30;20100;-87
2021/12/02 06:51:29;;;;;;;2.53;0.60;;;2.30;99.90;;;;;;4794882;29;20039;-86
2021/12/02 06:53:55;;;;;;;0.60;0.25;;;2.20;99.90;;;;;;4773681;29;20055;-85
2021/12/02 06:56:26;;;;;;;0.40;0.40;;;1.40;99.90;;;;;;4803215;29;20134;-90
2021/12/02 06:58:55;;;;;;;0.20;0.20;;;2.20;99.90;;;;;;4773556;30;20539;-91
2021/12/02 07:01:28;;;;;;;0.40;0.40;;;1.40;99.90;;;;;;4818169;29;20104;-90
2021/12/02 07:04:04;;;;;;;0.75;0.40;;;1.30;99.90;;;;;;4818065;29;20063;-90
2021/12/02 07:06:38;;;;;;;0.65;0.40;;;1.30;99.90;;;;;;4772784;30;20055;-90
2021/12/02 07:09:04;;;;;;;0.60;0.40;;;2.20;99.90;;;;;;4771988;30;20051;-89
2021/12/02 07:11:42;;;;;;;0.28;0.17;;;1.30;99.90;;;;;;4817157;29;20059;-88
2021/12/02 07:14:27;;;;;;;;;;;;;;;;;;;;;
2021/12/02 07:17:01;;;;;;;0.77;0.50;;;1.40;99.90;;;;;;4807565;29;20062;-87
2021/12/02 07:19:27;;;;;;;0.50;0.50;;;1.40;99.90;;;;;;4772925;30;20047;-90
2021/12/02 07:21:56;;;;;;;4.17;0.40;;;1.40;99.90;;;;;;4771429;30;20109;-87
2021/12/02 07:24:26;;;;;;;1.05;1.05;;;1.40;99.90;;;;;;4758068;30;20095;-91
2021/12/02 07:26:52;;;;;;;1.45;0.63;;;1.40;99.90;;;;;;4803006;29;20153;-93
2021/12/02 07:29:20;;;;;;;0.60;0.60;;;1.40;99.90;;;;;;4802322;29;20531;-92
2021/12/02 07:31:50;;;;;;;0.60;0.60;;;1.50;99.90;;;;;;4774459;30;20047;-93
2021/12/02 07:34:28;;;;;;;2.58;0.65;;;2.20;99.90;;;;;;4771779;30;20072;-92
2021/12/02 07:37:02;;;;;;;3.05;0.80;;;1.50;99.90;;;;;;4771866;30;20057;-93
2021/12/02 07:39:34;;;;;;;1.42;0.77;;;1.50;99.90;;;;;;4787316;30;20594;-94
2021/12/02 07:42:00;;;;;;;2.75;0.60;;;1.50;99.90;;;;;;4774165;29;20514;-95
2021/12/02 07:44:28;;;;;;;1.23;0.60;;;2.10;99.90;;;;;;4805731;29;20054;-95
2021/12/02 07:47:06;;;;;;;4.30;0.80;;;1.50;99.90;;;;;;4776722;29;20047;-96
2021/12/02 07:49:37;;;;;;;0.30;0.30;;;1.60;99.90;;;;;;4803619;29;20486;-92
2021/12/02 07:52:12;;;;;;;0.60;0.60;;;1.60;99.90;;;;;;4804956;29;20061;-94
2021/12/02 07:54:49;;;;;;;0.70;0.52;;;1.70;99.90;;;;;;4806276;29;20046;-94
2021/12/02 07:57:16;;;;;;;1.55;0.93;;;2.70;99.90;;;;;;4790598;29;20103;-94
2021/12/02 07:59:51;;;;;;;1.30;1.10;;;1.70;99.90;;;;;;4819546;29;20126;-94
2021/12/02 08:02:24;;;;;;;0.70;0.70;;;2.80;99.90;;;;;;4790749;29;20066;-96
2021/12/02 08:05:00;;;;;;;4.25;1.33;;;1.80;99.90;;;;;;4804798;29;20666;-92
2021/12/02 08:07:34;;;;;;;3.42;2.70;;;1.70;99.90;;;;;;4819716;29;20051;-92
2021/12/02 08:10:10;;;;;;;;;;;;;;;;;;;;;
2021/12/02 08:13:07;;;;;;;;;;;;;;;;;;;;;
2021/12/02 08:16:04;;;;;;;2.35;2.15;;;1.80;99.90;;;;;;4788034;29;20065;-94
2021/12/02 08:18:50;;;;;;;4.25;2.20;;;1.80;99.90;;;;;;4775663;29;20043;-91
2021/12/02 08:21:24;;;;;;;2.00;1.20;;;1.90;99.90;;;;;;4798194;29;20092;-93
2021/12/02 08:23:52;;;;;;;4.95;1.92;;;1.70;99.90;;;;;;4789219;29;20499;-92
2021/12/02 08:26:31;;;;;;;4.93;1.85;;;2.00;99.90;;;;;;4805445;29;20050;-94
2021/12/02 08:29:02;;;;;;;3.80;2.03;;;2.10;99.90;;;;;;4790476;29;20047;-93
2021/12/02 08:31:35;;;;;;;2.90;2.15;;;2.10;99.90;;;;;;4821518;29;20038;-91
2021/12/02 08:34:01;;;;;;;3.67;2.47;;;1.30;99.90;;;;;;4774451;29;20059;-86
2021/12/02 08:36:40;;;;;;;2.73;2.10;;;1.50;99.90;;;;;;4789329;29;20134;-88
2021/12/02 08:39:08;;;;;;;5.55;2.85;;;2.20;99.90;;;;;;4774515;29;20141;-90
2021/12/02 08:42:16;;;;;;;5.07;3.83;;;2.20;99.90;;;;;;4789952;29;20494;-93
2021/12/02 08:45:06;;;;;;;11.30;4.78;;;2.20;99.90;;;;;;4787938;30;20096;-91
2021/12/02 08:47:43;;;;;;;8.07;4.22;;;1.70;99.90;;;;;;4764892;30;20047;-90
2021/12/02 08:50:20;;;;;;;12.18;4.38;;;2.20;99.90;;;;;;4768866;29;20402;-96
2021/12/02 08:52:58;;;;;;;9.80;5.55;;;2.10;99.90;;;;;;4792445;29;20047;-92
2021/12/02 08:55:29;;;;;;;7.45;4.10;;;2.20;99.90;;;;;;4776217;29;20059;-91
2021/12/02 08:57:58;;;;;;;4.72;2.80;;;2.90;99.90;;;;;;4775468;29;20050;-94
2021/12/02 09:00:39;;;;;;;2.25;1.85;;;2.30;99.90;;;;;;4798461;29;20040;-91
2021/12/02 09:03:15;;;;;;;2.95;2.00;;;2.20;99.90;;;;;;4776529;30;20055;-91
2021/12/02 09:05:43;;;;;;;9.60;3.95;;;2.40;99.90;;;;;;4764489;30;20130;-93
2021/12/02 09:08:15;;;;;;;2.10;1.90;;;2.40;99.90;;;;;;4765193;29;20147;-88
2021/12/02 09:10:52;;;;;;;2.10;1.20;;;2.50;99.90;;;;;;4762585;29;20039;-93
2021/12/02 09:13:38;;;;;;;1.25;1.23;;;2.90;99.90;;;;;;4764179;29;20083;-93
2021/12/02 09:16:15;;;;;;;1.88;1.63;;;3.20;99.90;;;;;;4783945;29;20208;-94
2021/12/02 09:18:44;;;;;;;4.90;1.60;;;3.50;99.90;;;;;;4788356;29;20054;-92
2021/12/02 09:21:21;;;;;;;1.33;0.95;;;3.70;99.90;;;;;;4792676;29;20503;-93
2021/12/02 09:23:59;;;;;;;1.95;1.13;;;3.80;99.90;;;;;;4794965;29;20057;-93
2021/12/02 09:26:27;;;;;;;3.85;1.35;;;5.00;99.90;;;;;;4786724;30;20140;-92
2021/12/02 09:29:04;;;;;;;;;;;;;;;;;;;;;
2021/12/02 09:31:40;;;;;;;;;;;;;;;;;;;;;
2021/12/02 09:34:19;;;;;;;1.38;1.23;;;5.40;99.90;;;;;;4810039;29;20074;-95
2021/12/02 09:36:47;;;;;;;1.20;1.10;;;4.40;99.90;;;;;;4796826;29;20043;-95
2021/12/02 09:39:19;;;;;;;5.13;0.85;;;4.30;99.90;;;;;;4780080;29;20053;-96
2021/12/02 09:41:55;;;;;;;1.42;0.98;;;4.20;99.90;;;;;;4764258;30;20051;-95
2021/12/02 09:44:47;;;;;;;0.65;0.65;;;4.50;99.90;;;;;;4771266;30;20112;-94
2021/12/02 09:47:28;;;;;;;;;;;;;;;;;;;;;
2021/12/02 09:50:11;;;;;;;0.90;0.65;;;3.90;99.90;;;;;;4771108;30;20131;-94
2021/12/02 09:52:50;;;;;;;1.35;0.77;;;4.00;99.90;;;;;;4786537;30;20071;-95
2021/12/02 09:55:50;;;;;;;0.93;0.50;;;3.80;99.90;;;;;;4770351;30;20051;-93
2021/12/02 09:58:25;;;;;;;1.73;1.25;;;3.70;99.90;;;;;;4755665;30;20054;-91
2021/12/02 10:03:34;;;;;;;1.48;0.88;;;3.60;99.90;;;;;;4800233;29;20043;-90
2021/12/02 10:06:12;;;;;;;;;;;3.50;99.90;;;;;;4784936;30;20499;-90
2021/12/02 10:11:38;;;;;;;1.15;0.80;;;2.70;99.90;;;;;;4770202;30;20515;-88
2021/12/02 10:14:33;;;;;;;5.30;0.57;;;3.50;99.90;;;;;;4786088;29;20119;-92
2021/12/02 10:17:16;;;;;;;1.20;0.60;;;3.50;99.90;;;;;;4788775;29;20059;-92
2021/12/02 10:23:44;;;;;;;;;;;;;;;;;;;;;
2021/12/02 10:26:22;;;;;;;1.15;0.93;;;3.80;99.90;;;;;;4804747;29;20435;-94
2021/12/02 10:29:10;;;;;;;1.13;0.85;;;3.00;99.90;;;;;;4774578;30;20112;-94
2021/12/02 10:31:47;;;;;;;;;;;;;;;;;;;;;
2021/12/02 10:34:34;;;;;;;1.08;0.55;;;4.00;99.90;;;;;;4804527;29;19925;-94
2021/12/02 10:37:18;;;;;;;0.40;0.40;;;4.80;99.90;;;;;;4759481;30;20047;-91
2021/12/02 10:40:00;;;;;;;0.55;0.50;;;3.60;99.90;;;;;;4804170;29;20495;-91
2021/12/02 10:42:32;;;;;;;0.20;0.15;;;3.20;99.90;;;;;;4792601;29;20063;-92
2021/12/02 10:45:04;;;;;;;0.20;0.20;;;3.70;99.90;;;;;;4806758;29;20473;-91
2021/12/02 10:47:37;;;;;;;0.10;0.10;;;2.50;99.90;;;;;;4822081;29;20153;-91
2021/12/02 10:50:20;;;;;;;;;;;;;;;;;;;;;
2021/12/02 10:52:51;;;;;;;0.10;0.10;;;1.60;99.90;;;;;;4806313;29;20098;-91
2021/12/02 10:55:28;;;;;;;0.10;0.10;;;1.90;99.90;;;;;;4778063;29;20061;-92
2021/12/02 10:58:32;;;;;;;0.10;0.10;;;1.80;99.90;;;;;;4822358;29;20047;-92
2021/12/02 11:01:26;;;;;;;0.45;0.20;;;1.80;99.90;;;;;;4805855;29;20054;-92
2021/12/02 11:04:15;;;;;;;0.00;0.00;;;1.80;99.90;;;;;;4806573;29;20498;-91
2021/12/02 11:06:50;;;;;;;2.17;0.85;;;1.80;99.90;;;;;;4804151;29;20146;-91
2021/12/02 11:09:33;;;;;;;0.77;0.57;;;1.80;99.90;;;;;;4792005;29;20328;-90
2021/12/02 11:12:09;;;;;;;5.82;1.10;;;3.00;99.90;;;;;;4821927;29;20055;-91
2021/12/02 11:15:01;;;;;;;8.40;4.20;;;1.90;99.90;;;;;;4807243;29;20141;-90
2021/12/02 11:17:58;;;;;;;;;;;;;;;;;;;;;
2021/12/02 11:20:42;;;;;;;5.43;2.35;;;1.90;99.90;;;;;;4840852;29;20055;-89
2021/12/02 11:23:27;;;;;;;2.80;1.25;;;1.80;99.90;;;;;;4809239;29;20061;-89
2021/12/02 11:26:00;;;;;;;1.75;1.20;;;1.80;99.90;;;;;;4810934;29;20055;-91
2021/12/02 11:28:49;;;;;;;3.38;1.65;;;1.90;99.90;;;;;;4807117;29;20054;-91
2021/12/02 11:31:28;;;;;;;1.20;1.10;;;2.80;99.90;;;;;;4806600;29;20112;-91
2021/12/02 11:34:13;;;;;;;2.60;1.27;;;1.80;99.90;;;;;;4821950;29;20107;-91
2021/12/02 11:36:44;;;;;;;4.50;1.95;;;1.80;99.90;;;;;;4776783;29;20055;-91
2021/12/02 11:39:21;;;;;;;2.10;1.17;;;1.80;99.90;;;;;;4791367;29;20058;-91
2021/12/02 11:41:57;;;;;;;2.17;1.38;;;2.00;99.90;;;;;;4821762;29;20142;-90
2021/12/02 11:44:32;;;;;;;1.23;1.13;;;1.70;99.90;;;;;;4804260;29;20062;-91
2021/12/02 11:47:01;;;;;;;0.70;0.70;;;1.70;99.90;;;;;;4821814;29;20062;-91
2021/12/02 11:49:37;;;;;;;;;;;;;;;;;;;;;
2021/12/02 11:52:13;;;;;;;1.10;0.80;;;1.70;99.90;;;;;;4821292;29;20129;-91
2021/12/02 11:54:54;;;;;;;0.55;0.50;;;1.70;99.90;;;;;;4776197;29;20069;-91
2021/12/02 11:57:33;;;;;;;1.75;0.82;;;1.80;99.90;;;;;;4806121;29;20142;-92
2021/12/02 12:00:08;;;;;;;1.02;0.73;;;1.80;99.90;;;;;;4821384;29;20050;-92
2021/12/02 12:03:05;;;;;;;1.08;0.88;;;1.10;99.90;;;;;;4821285;29;20579;-92
2021/12/02 12:05:37;;;;;;;0.50;0.50;;;1.90;99.90;;;;;;4805699;29;20142;-91
2021/12/02 12:08:49;;;;;;;0.63;0.55;;;1.90;99.90;;;;;;4806284;29;20058;-95
2021/12/02 12:11:38;;;;;;;0.60;0.60;;;2.00;99.90;;;;;;4805706;29;20058;-92
2021/12/02 12:14:12;;;;;;;;;;;2.00;99.90;;;;;;4791565;29;20520;-94
2021/12/02 12:17:04;;;;;;;2.80;1.30;;;2.10;99.90;;;;;;4789916;29;19932;-92
2021/12/02 12:19:32;;;;;;;5.90;0.85;;;3.30;99.90;;;;;;4804019;29;20133;-92
2021/12/02 12:22:19;;;;;;;;;;;;;;;;;;;;;
2021/12/02 12:25:00;;;;;;;1.45;0.55;;;1.60;99.90;;;;;;4789355;29;20051;-83
2021/12/02 12:27:29;;;;;;;1.10;1.00;;;2.20;99.90;;;;;;4775341;29;20061;-87
2021/12/02 12:30:06;;;;;;;1.55;0.80;;;2.20;99.90;;;;;;4776288;29;20058;-96
2021/12/02 12:32:41;;;;;;;1.33;0.95;;;2.10;99.90;;;;;;4790551;29;20043;-94
2021/12/02 12:35:28;;;;;;;2.17;0.90;;;2.80;99.90;;;;;;4790501;29;20057;-96
2021/12/02 12:37:56;;;;;;;0.85;0.75;;;2.20;99.90;;;;;;4803766;29;20518;-87
2021/12/02 12:40:42;;;;;;;2.25;1.38;;;3.20;99.90;;;;;;4803733;29;20142;-85
2021/12/02 12:43:08;;;;;;;5.05;2.40;;;2.20;99.90;;;;;;4788297;29;20499;-87
2021/12/02 12:45:41;;;;;;;1.38;1.27;;;2.30;99.90;;;;;;4819569;29;20112;-87
2021/12/02 12:48:28;;;;;;;2.95;2.47;;;3.40;99.90;;;;;;4820628;29;20047;-87
2021/12/02 12:51:14;;;;;;;1.67;1.20;;;3.50;99.90;;;;;;4804766;29;20487;-94
2021/12/02 12:53:43;;;;;;;2.25;1.60;;;3.10;99.90;;;;;;4802818;29;20521;-89
2021/12/02 12:56:15;;;;;;;3.42;0.77;;;3.40;99.90;;;;;;4803101;29;20135;-93
2021/12/02 12:59:14;;;;;;;1.35;0.85;;;3.40;99.90;;;;;;4804659;29;20054;-92
2021/12/02 13:01:54;;;;;;;0.75;0.68;;;3.40;99.90;;;;;;4772585;29;20062;-92
2021/12/02 13:04:37;;;;;;;0.50;0.50;;;3.30;99.90;;;;;;4774111;29;20059;-89
2021/12/02 13:07:20;;;;;;;0.30;0.30;;;3.10;99.90;;;;;;4803931;29;20115;-87
2021/12/02 13:10:02;;;;;;;0.65;0.65;;;3.00;99.90;;;;;;4804617;29;20407;-87
2021/12/02 13:12:39;;;;;;;0.60;0.60;;;2.90;99.90;;;;;;4789778;29;20095;-88
2021/12/02 13:15:09;;;;;;;0.60;0.50;;;2.80;99.90;;;;;;4800706;29;20536;-86
2021/12/02 13:17:38;;;;;;;0.77;0.50;;;2.80;99.90;;;;;;4803281;29;20510;-87
2021/12/02 13:20:19;;;;;;;0.30;0.30;;;2.80;99.90;;;;;;4804326;29;20075;-89
2021/12/02 13:23:04;;;;;;;0.60;0.60;;;3.30;99.90;;;;;;4775142;29;20182;-89
2021/12/02 13:25:53;;;;;;;0.20;0.20;;;3.10;99.90;;;;;;4788534;29;20494;-88
2021/12/02 13:28:36;;;;;;;0.38;0.28;;;3.50;99.90;;;;;;4788035;29;20112;-88
2021/12/02 13:31:07;;;;;;;0.55;0.30;;;3.70;99.90;;;;;;4774080;29;20059;-88
2021/12/02 13:33:46;;;;;;;0.98;0.30;;;4.00;99.90;;;;;;4819848;29;20110;-93
2021/12/02 13:36:17;;;;;;;0.30;0.30;;;4.10;99.90;;;;;;4804704;29;20123;-91
2021/12/02 13:39:00;;;;;;;0.43;0.28;;;4.80;99.90;;;;;;4820197;29;20046;-93
2021/12/02 13:41:29;;;;;;;0.93;0.35;;;4.50;99.90;;;;;;4803738;29;20119;-92
2021/12/02 13:43:58;;;;;;;0.57;0.43;;;4.60;99.90;;;;;;4804274;29;20066;-88
2021/12/02 13:46:30;;;;;;;0.30;0.28;;;4.10;99.90;;;;;;4789294;29;20047;-91
2021/12/02 13:49:01;;;;;;;0.65;0.60;;;5.00;99.90;;;;;;4804063;29;20460;-91
2021/12/02 13:54:33;;;;;;;0.40;0.40;;;5.30;99.90;;;;;;4819903;29;20055;-92
2021/12/02 13:57:21;;;;;;;0.50;0.50;;;5.30;99.90;;;;;;4788945;29;20067;-91
2021/12/02 13:59:48;;;;;;;0.50;0.50;;;5.30;99.90;;;;;;4803965;29;20458;-90
2021/12/02 14:02:32;;;;;;;2.33;0.45;;;5.20;99.90;;;;;;4774602;29;20074;-91
2021/12/02 14:04:57;;;;;;;2.55;1.20;;;5.20;99.90;;;;;;4774073;29;20513;-92
2021/12/02 14:07:26;;;;;;;0.90;0.77;;;5.00;99.90;;;;;;4774137;29;20059;-92
2021/12/02 14:09:59;;;;;;;1.85;0.80;;;4.70;99.90;;;;;;4789109;29;20058;-92
2021/12/02 14:12:44;;;;;;;0.75;0.70;;;5.10;99.90;;;;;;4804057;29;20051;-94
2021/12/02 14:15:17;;;;;;;0.95;0.45;;;4.50;99.90;;;;;;4819068;29;20061;-91
2021/12/02 14:17:48;;;;;;;2.80;0.60;;;3.90;99.90;;;;;;4788893;29;20061;-91